Time;durP1;ratioP1;P1;durP2;ratioP2;P2;SDS_P1;SDS_P2;PMS_P1;PMS_P2;Temp;Humidity;BMP_temperature;BMP_pressure;BME280_temperature;BME280_humidity;BME280_pressure;Samples;Min_cycle;Max_cycle;Signal;HPM_P1;HPM_P2
2022/12/14 00:01:53;;;;;;;171.10;60.90;;;;;;;-9.57;92.17;98251.20;213663;1311;24379;-76
2022/12/14 00:06:55;;;;;;;113.00;47.90;;;;;;;-9.71;92.23;98251.38;213780;1312;22712;-74
2022/12/14 00:11:57;;;;;;;201.80;70.40;;;;;;;-9.83;91.86;98245.84;213541;1310;22733;-75
2022/12/14 00:16:59;;;;;;;158.40;56.30;;;;;;;-9.99;91.46;98251.67;213894;1312;24286;-76
2022/12/14 00:22:01;;;;;;;162.40;59.50;;;;;;;-10.12;91.51;98255.92;213870;1312;23781;-76
2022/12/14 00:27:03;;;;;;;197.90;66.70;;;;;;;-10.16;91.69;98250.83;213726;1312;25228;-76
2022/12/14 00:32:05;;;;;;;180.80;63.80;;;;;;;-10.10;92.06;98241.98;213572;1313;22559;-77
2022/12/14 00:37:10;;;;;;;199.10;76.50;;;;;;;-9.95;92.53;98240.84;213640;1306;22637;-75
2022/12/14 00:42:11;;;;;;;151.30;58.40;;;;;;;-9.79;92.71;98238.94;213520;1313;22595;-76
2022/12/14 00:47:13;;;;;;;186.80;66.40;;;;;;;-9.62;92.98;98234.06;213559;1313;22609;-75
2022/12/14 00:52:15;;;;;;;187.50;68.90;;;;;;;-9.45;93.23;98237.02;213732;1313;22782;-75
2022/12/14 00:57:17;;;;;;;204.40;72.80;;;;;;;-9.26;93.27;98239.96;213627;1313;23900;-75
2022/12/14 01:02:18;;;;;;;206.70;74.90;;;;;;;-9.08;93.50;98235.10;213585;1313;22597;-75
2022/12/14 01:07:20;;;;;;;212.20;72.90;;;;;;;-8.92;93.42;98227.60;213459;1313;24997;-76
2022/12/14 01:12:22;;;;;;;224.30;82.40;;;;;;;-8.81;93.18;98217.90;213630;1307;22550;-76
2022/12/14 01:17:24;;;;;;;246.10;88.90;;;;;;;-8.76;92.89;98212.63;213606;1313;22674;-76
2022/12/14 01:22:26;;;;;;;215.80;71.80;;;;;;;-8.68;93.01;98208.55;213713;1313;27884;-75
2022/12/14 01:27:28;;;;;;;182.90;69.10;;;;;;;-8.60;93.04;98208.02;213683;1313;25460;-75
2022/12/14 01:32:30;;;;;;;154.20;60.50;;;;;;;-8.54;92.93;98200.81;213977;1311;26155;-78
2022/12/14 01:37:31;;;;;;;181.80;66.00;;;;;;;-8.53;92.86;98199.55;213899;1312;22722;-76
2022/12/14 01:42:35;;;;;;;129.20;47.50;;;;;;;-8.46;93.16;98193.73;213774;1312;23267;-76
2022/12/14 01:47:42;;;;;;;124.70;45.90;;;;;;;-8.45;93.07;98196.29;213714;1312;23104;-76
2022/12/14 01:52:46;;;;;;;113.60;43.80;;;;;;;-8.39;93.21;98188.36;213750;1307;22768;-75
2022/12/14 01:58:14;;;;;;;137.20;49.20;;;;;;;-8.34;93.16;98183.51;213938;1312;24303;-75
2022/12/14 02:03:37;;;;;;;118.60;46.10;;;;;;;-8.36;92.93;98190.64;213833;1307;22739;-77
2022/12/14 02:08:42;;;;;;;138.20;52.60;;;;;;;-8.46;92.71;98192.00;213669;1312;25557;-76
2022/12/14 02:13:44;;;;;;;119.40;45.30;;;;;;;-8.59;92.61;98181.23;213436;1312;24258;-76
2022/12/14 02:18:49;;;;;;;114.80;41.70;;;;;;;-8.75;92.42;98175.85;213685;1312;26727;-74
2022/12/14 02:24:18;;;;;;;113.80;41.90;;;;;;;-8.91;92.35;98172.95;213776;1312;25296;-75
2022/12/14 02:29:42;;;;;;;123.50;45.90;;;;;;;-9.07;92.24;98171.52;213916;1312;22483;-76
2022/12/14 02:35:17;;;;;;;105.60;38.20;;;;;;;-9.18;92.33;98168.99;213887;1312;24402;-76
2022/12/14 02:40:31;;;;;;;86.10;35.10;;;;;;;-9.30;92.23;98164.86;213892;1302;21733;-75
2022/12/14 02:46:02;;;;;;;95.50;37.60;;;;;;;-9.39;92.24;98153.25;213911;1312;22499;-75
2022/12/14 02:51:48;;;;;;;115.10;43.70;;;;;;;-9.47;92.13;98151.86;213711;1312;22573;-76
2022/12/14 02:56:58;;;;;;;78.40;33.40;;;;;;;-9.52;92.36;98146.20;213798;1312;23073;-75
2022/12/14 03:02:02;;;;;;;79.20;34.80;;;;;;;-9.58;92.35;98144.70;213934;1312;23110;-74
2022/12/14 03:07:33;;;;;;;111.40;43.00;;;;;;;-9.66;92.19;98146.20;214045;1312;22549;-75
2022/12/14 03:12:39;;;;;;;101.90;39.80;;;;;;;-9.71;92.35;98147.77;213840;1312;22648;-76
2022/12/14 03:17:45;;;;;;;111.20;43.40;;;;;;;-9.75;92.16;98143.39;213855;1312;22513;-76
2022/12/14 03:22:57;;;;;;;122.00;45.80;;;;;;;-9.79;92.27;98133.66;213780;1312;22479;-75
2022/12/14 03:28:13;;;;;;;72.40;30.60;;;;;;;-9.76;92.53;98127.32;213875;1312;22496;-76
2022/12/14 03:33:19;;;;;;;83.50;33.20;;;;;;;-9.76;92.47;98125.92;213679;1312;22496;-76
2022/12/14 03:38:36;;;;;;;109.80;43.00;;;;;;;-9.73;92.67;98122.60;213733;1312;22488;-76
2022/12/14 03:44:16;;;;;;;96.90;40.00;;;;;;;-9.68;92.67;98121.84;213907;1312;23179;-76
2022/12/14 03:49:31;;;;;;;93.30;39.90;;;;;;;-9.68;92.47;98118.60;213866;1312;23775;-76
2022/12/14 03:54:52;;;;;;;83.40;32.90;;;;;;;-9.65;92.49;98122.29;213762;1312;25599;-74
2022/12/14 04:00:11;;;;;;;76.90;32.90;;;;;;;-9.65;92.41;98128.83;213750;1308;22517;-75
2022/12/14 04:05:29;;;;;;;72.60;31.40;;;;;;;-9.68;92.36;98130.89;213665;1294;22491;-75
2022/12/14 04:21:38;;;;;;;62.60;27.30;;;;;;;-9.63;92.32;98116.13;213731;1312;21770;-76
2022/12/14 04:26:53;;;;;;;63.00;26.70;;;;;;;-9.62;92.49;98108.65;213941;1312;22528;-76
2022/12/14 04:32:24;;;;;;;74.90;31.50;;;;;;;-9.61;92.47;98092.12;213730;1312;25160;-76
2022/12/14 04:37:27;;;;;;;60.70;26.50;;;;;;;-9.59;92.28;98088.11;213574;1312;24476;-75
2022/12/14 04:42:40;;;;;;;47.80;22.20;;;;;;;-9.57;92.19;98089.38;213625;1312;22506;-75
2022/12/14 04:47:50;;;;;;;50.30;23.70;;;;;;;-9.52;92.51;98076.14;213740;1309;23044;-76
2022/12/14 04:53:00;;;;;;;54.90;24.40;;;;;;;-9.44;92.36;98065.99;213884;1312;25300;-76
2022/12/14 04:58:23;;;;;;;41.30;19.00;;;;;;;-9.40;92.42;98061.99;213823;1313;24280;-76
2022/12/14 05:03:30;;;;;;;63.80;26.40;;;;;;;-9.37;92.41;98048.21;213682;1313;23897;-75
2022/12/14 05:08:51;;;;;;;56.90;27.40;;;;;;;-9.35;92.29;98042.30;213547;1312;22648;-75
2022/12/14 05:13:52;;;;;;;;;;;;;;;-9.36;92.12;98032.67;213704;1313;22482;-75
2022/12/14 05:18:54;;;;;;;49.00;21.20;;;;;;;-9.45;91.86;98032.21;213798;1312;22491;-76
2022/12/14 05:23:58;;;;;;;46.70;19.00;;;;;;;-9.54;91.73;98026.92;213824;1306;23110;-75
2022/12/14 05:29:00;;;;;;;35.20;16.30;;;;;;;-9.50;92.18;98022.59;214066;1312;22669;-75
2022/12/14 05:34:02;;;;;;;40.40;18.80;;;;;;;-9.45;92.29;98026.84;213786;1312;24646;-76
2022/12/14 05:39:04;;;;;;;38.30;18.60;;;;;;;-9.38;92.52;98033.73;213657;1312;22550;-74
2022/12/14 05:44:06;;;;;;;53.70;24.30;;;;;;;-9.31;92.60;98035.54;213897;1312;22464;-75
2022/12/14 05:49:08;;;;;;;49.70;23.40;;;;;;;-9.23;92.62;98036.92;213794;1297;24249;-76
2022/12/14 05:54:10;;;;;;;58.20;23.70;;;;;;;-9.15;92.62;98031.95;213722;1312;22660;-76
2022/12/14 05:59:14;;;;;;;50.60;23.70;;;;;;;-9.15;92.39;98038.16;213607;1312;25412;-76
2022/12/14 06:04:17;;;;;;;69.20;29.40;;;;;;;-9.16;92.43;98037.22;213871;1312;23114;-75
2022/12/14 06:09:19;;;;;;;54.20;25.20;;;;;;;-9.08;92.48;98031.64;213722;1312;22526;-76
2022/12/14 06:14:23;;;;;;;62.30;28.10;;;;;;;-9.04;92.54;98021.02;213940;1312;25986;-75
2022/12/14 06:19:25;;;;;;;64.40;29.40;;;;;;;-9.04;92.25;98019.83;213628;1312;22943;-75
2022/12/14 06:24:26;;;;;;;56.10;26.20;;;;;;;-9.07;92.09;98019.44;213641;1312;24366;-75
2022/12/14 06:29:28;;;;;;;45.40;20.80;;;;;;;-9.11;92.01;98014.92;213638;1312;25519;-75
2022/12/14 06:34:30;;;;;;;53.10;25.00;;;;;;;-9.13;92.18;98001.31;213897;1312;25803;-76
2022/12/14 06:39:39;;;;;;;35.20;15.40;;;;;;;-9.14;92.15;98003.43;213856;1312;23683;-74
2022/12/14 06:44:41;;;;;;;63.40;28.50;;;;;;;-9.16;92.03;97997.09;214143;1280;24855;-75
2022/12/14 06:49:43;;;;;;;49.40;23.70;;;;;;;-9.18;91.96;97998.23;214192;1289;22551;-76
2022/12/14 06:54:45;;;;;;;49.10;20.80;;;;;;;-9.25;91.58;97991.59;214231;1285;22507;-76
2022/12/14 06:59:47;;;;;;;52.60;24.90;;;;;;;-9.26;91.62;97993.65;214216;1287;22682;-73
2022/12/14 07:04:49;;;;;;;40.50;19.00;;;;;;;-9.20;91.85;97988.42;215076;1280;139479;-75
2022/12/14 07:09:51;;;;;;;53.00;22.80;;;;;;;-9.14;92.07;97977.84;215040;1287;139294;-74
2022/12/14 07:14:53;;;;;;;47.00;20.70;;;;;;;-9.00;92.17;97976.48;214496;1287;139882;-74
2022/12/14 07:19:56;;;;;;;50.20;23.50;;;;;;;-8.90;92.17;97967.13;214261;1281;139056;-75
2022/12/14 07:24:57;;;;;;;43.20;19.20;;;;;;;-8.79;92.10;97969.28;214270;1288;22608;-74
2022/12/14 07:29:59;;;;;;;47.10;20.40;;;;;;;-8.66;92.17;97967.02;213966;1290;139057;-74
2022/12/14 07:35:01;;;;;;;42.20;17.20;;;;;;;-8.54;92.21;97963.66;214070;1285;138982;-74
2022/12/14 07:40:04;;;;;;;49.60;20.60;;;;;;;-8.44;91.98;97956.08;214136;1282;139093;-75
2022/12/14 07:45:06;;;;;;;42.90;19.10;;;;;;;-8.32;91.79;97963.95;213958;1287;139313;-75
2022/12/14 07:50:08;;;;;;;50.10;23.60;;;;;;;-8.19;91.98;97965.70;214105;1285;139321;-74
2022/12/14 07:55:10;;;;;;;38.70;18.20;;;;;;;-8.02;91.96;97963.83;214186;1289;22674;-74
2022/12/14 08:00:12;;;;;;;41.50;18.00;;;;;;;-7.82;91.90;97965.02;214142;1280;138527;-73
2022/12/14 08:05:14;;;;;;;49.00;21.80;;;;;;;-7.67;91.69;97962.91;214602;1282;139396;-75
2022/12/14 08:10:17;;;;;;;42.70;18.80;;;;;;;-7.48;91.65;97965.58;214071;1288;139168;-74
2022/12/14 08:15:18;;;;;;;38.60;17.60;;;;;;;-7.32;91.50;97956.38;214198;1282;139015;-74
2022/12/14 08:20:20;;;;;;;46.20;20.50;;;;;;;-7.16;91.43;97962.86;213819;1288;139057;-75
2022/12/14 08:25:22;;;;;;;38.00;17.50;;;;;;;-6.96;91.28;97962.58;214125;1287;139499;-74
2022/12/14 08:30:24;;;;;;;48.20;19.10;;;;;;;-6.75;91.18;97967.67;214233;1287;24362;-74
2022/12/14 08:35:26;;;;;;;57.10;23.10;;;;;;;-6.56;90.91;97965.20;214103;1280;138668;-74
2022/12/14 08:40:28;;;;;;;45.10;20.20;;;;;;;-6.40;90.74;97958.53;213862;1290;139189;-76
2022/12/14 08:45:30;;;;;;;49.20;23.10;;;;;;;-6.30;90.37;97959.54;214234;1280;139492;-75
2022/12/14 08:50:32;;;;;;;46.90;19.10;;;;;;;-6.25;90.05;97959.27;214515;1291;139111;-74
2022/12/14 08:55:36;;;;;;;43.30;18.80;;;;;;;-6.23;89.87;97962.30;214169;1294;139058;-74
2022/12/14 09:00:39;;;;;;;39.60;21.30;;;;;;;-6.11;90.03;97954.81;214520;1284;23925;-75
2022/12/14 09:05:41;;;;;;;41.70;20.10;;;;;;;-5.95;89.87;97945.44;214726;1306;139694;-75
2022/12/14 09:10:49;;;;;;;48.70;22.40;;;;;;;-5.77;89.82;97945.16;214221;1290;139293;-74
2022/12/14 09:16:16;;;;;;;52.80;24.30;;;;;;;-5.53;89.58;97944.80;214160;1287;139549;-74
2022/12/14 09:21:18;;;;;;;51.10;24.00;;;;;;;-5.27;89.38;97948.27;214055;1294;139655;-72
2022/12/14 09:26:24;;;;;;;53.30;25.40;;;;;;;-5.07;89.06;97933.40;214170;1288;139597;-73
2022/12/14 09:31:26;;;;;;;56.80;27.10;;;;;;;-4.91;88.74;97922.71;214231;1288;139527;-73
2022/12/14 09:36:28;;;;;;;67.10;31.30;;;;;;;-4.77;88.47;97925.73;214211;1298;22537;-73
2022/12/14 09:41:33;;;;;;;68.50;29.90;;;;;;;-4.58;89.13;97922.77;214148;1301;139082;-73
2022/12/14 09:46:51;;;;;;;49.90;23.00;;;;;;;-4.32;89.17;97914.34;214192;1312;139159;-73
2022/12/14 09:51:56;;;;;;;52.80;24.20;;;;;;;-4.14;89.27;97918.89;214027;1290;139096;-73
2022/12/14 09:57:03;;;;;;;56.10;25.20;;;;;;;-3.96;89.02;97922.05;214030;1287;139236;-74
2022/12/14 10:02:39;;;;;;;41.70;19.40;;;;;;;-3.86;88.29;97909.64;214143;1288;139204;-74
2022/12/14 10:07:50;;;;;;;41.90;19.30;;;;;;;-3.74;88.46;97903.05;214602;1288;139185;-75
2022/12/14 10:13:12;;;;;;;43.20;19.80;;;;;;;-3.61;88.03;97895.61;214070;1312;22606;-75
2022/12/14 10:18:50;;;;;;;42.10;17.40;;;;;;;-3.48;87.50;97887.64;214004;1289;138589;-76
2022/12/14 10:24:05;;;;;;;37.00;16.20;;;;;;;-3.44;86.89;97892.73;214123;1288;139249;-75
2022/12/14 10:29:13;;;;;;;35.10;15.00;;;;;;;-3.29;87.02;97883.02;214397;1280;141097;-75
2022/12/14 10:34:23;;;;;;;30.80;14.60;;;;;;;-3.04;87.06;97875.23;214173;1299;139169;-75
2022/12/14 10:39:38;;;;;;;31.00;13.20;;;;;;;-2.85;86.96;97860.33;214169;1312;139109;-76
2022/12/14 10:44:55;;;;;;;30.30;12.50;;;;;;;-2.79;85.98;97852.08;213896;1287;159874;-75
2022/12/14 10:50:31;;;;;;;31.70;12.80;;;;;;;-2.78;85.76;97847.17;214032;1297;139093;-76
2022/12/14 10:55:38;;;;;;;30.90;13.80;;;;;;;-2.72;85.75;97829.61;214200;1284;138995;-75
2022/12/14 11:00:40;;;;;;;23.40;10.60;;;;;;;-2.62;85.61;97818.02;214079;1281;22483;-75
2022/12/14 11:06:02;;;;;;;29.20;13.30;;;;;;;-2.56;85.46;97805.02;214861;1291;138620;-76
2022/12/14 11:11:13;;;;;;;32.10;15.80;;;;;;;-2.49;85.51;97795.58;213866;1298;138884;-76
2022/12/14 11:16:33;;;;;;;34.00;15.10;;;;;;;-2.43;85.58;97793.54;214090;1288;139016;-77
2022/12/14 11:21:37;;;;;;;31.30;15.00;;;;;;;-2.38;85.41;97781.02;214205;1298;138886;-77
2022/12/14 11:26:41;;;;;;;31.10;13.80;;;;;;;-2.37;84.93;97774.96;213898;1289;139514;-77
2022/12/14 11:31:46;;;;;;;25.00;12.10;;;;;;;-2.33;85.19;97763.41;213966;1290;139582;-77
2022/12/14 11:36:49;;;;;;;26.50;13.10;;;;;;;-2.31;84.90;97750.08;213959;1288;25499;-73
2022/12/14 11:42:00;;;;;;;24.90;12.60;;;;;;;-2.23;85.07;97742.27;213973;1281;138187;-73
2022/12/14 11:47:12;;;;;;;30.20;12.90;;;;;;;-2.11;84.70;97731.85;214089;1297;138764;-75
2022/12/14 11:52:17;;;;;;;23.60;10.90;;;;;;;-2.06;84.51;97723.72;213930;1290;138890;-75
2022/12/14 11:57:29;;;;;;;21.30;9.00;;;;;;;-1.97;83.64;97710.94;214017;1312;139330;-75
2022/12/14 12:02:37;;;;;;;23.30;10.60;;;;;;;-1.72;83.99;97703.15;213689;1296;138976;-75
2022/12/14 12:07:55;;;;;;;23.90;9.40;;;;;;;-1.38;83.65;97684.36;214429;1293;139157;-76
2022/12/14 12:13:00;;;;;;;21.20;8.90;;;;;;;-1.19;82.96;97670.26;213910;1288;22488;-76
2022/12/14 12:18:15;;;;;;;31.30;13.60;;;;;;;-1.26;82.53;97662.12;213919;1312;139127;-76
2022/12/14 12:23:26;;;;;;;26.60;13.10;;;;;;;-1.50;82.26;97653.80;213900;1312;139337;-76
2022/12/14 12:28:34;;;;;;;29.20;13.00;;;;;;;-1.70;82.23;97650.04;213838;1310;138988;-76
2022/12/14 12:33:45;;;;;;;19.40;9.20;;;;;;;-1.70;82.47;97636.75;213865;1312;138928;-76
2022/12/14 12:39:23;;;;;;;23.70;12.10;;;;;;;-1.72;81.97;97619.91;213846;1282;139014;-76
2022/12/14 12:45:07;;;;;;;25.80;11.30;;;;;;;-1.76;82.52;97604.77;213940;1298;138920;-76
2022/12/14 12:50:31;;;;;;;29.80;13.20;;;;;;;-1.89;82.34;97594.79;213194;1281;138858;-76
2022/12/14 12:56:07;;;;;;;27.20;11.90;;;;;;;-1.98;82.59;97592.22;214375;1297;138956;-75
2022/12/14 13:01:41;;;;;;;24.60;11.30;;;;;;;-2.05;82.58;97576.25;214031;1297;25419;-76
2022/12/14 13:06:54;;;;;;;26.60;11.50;;;;;;;-2.10;82.75;97573.59;214743;1288;22481;-75
2022/12/14 13:11:57;;;;;;;39.10;16.80;;;;;;;-2.22;82.84;97563.17;213874;1287;138936;-75
2022/12/14 13:17:04;;;;;;;23.50;11.90;;;;;;;-2.31;83.06;97568.81;214142;1297;138934;-75
2022/12/14 13:22:11;;;;;;;37.10;15.80;;;;;;;-2.41;82.65;97561.69;214272;1290;139957;-76
2022/12/14 13:27:43;;;;;;;31.60;13.50;;;;;;;-2.53;83.01;97546.63;213715;1294;139338;-76
2022/12/14 13:32:54;;;;;;;25.30;12.00;;;;;;;-2.61;83.14;97524.35;213917;1291;139143;-76
2022/12/14 13:38:11;;;;;;;25.80;12.10;;;;;;;-2.69;83.34;97496.83;214083;1282;138881;-76
2022/12/14 13:44:07;;;;;;;27.20;11.30;;;;;;;-2.78;83.64;97488.94;214196;1288;22568;-76
2022/12/14 13:49:20;;;;;;;35.30;15.60;;;;;;;-2.89;83.62;97486.06;214083;1290;23788;-76
2022/12/14 13:54:29;;;;;;;39.70;14.40;;;;;;;-2.92;83.86;97490.14;213692;1313;138495;-77
2022/12/14 13:59:44;;;;;;;27.90;11.90;;;;;;;-2.98;83.99;97473.58;213901;1288;138784;-76
2022/12/14 14:04:46;;;;;;;29.80;14.70;;;;;;;-3.07;84.31;97473.15;214610;1280;139392;-75
2022/12/14 14:09:54;;;;;;;34.50;15.10;;;;;;;-3.09;84.09;97456.38;214229;1285;140374;-76
2022/12/14 14:15:06;;;;;;;26.70;12.30;;;;;;;-3.15;83.99;97427.76;214073;1312;139082;-77
2022/12/14 14:20:45;;;;;;;34.60;15.10;;;;;;;-3.24;84.01;97419.46;214040;1281;139231;-77
2022/12/14 14:25:47;;;;;;;35.10;14.50;;;;;;;-3.32;84.13;97431.77;214083;1281;139270;-78
2022/12/14 14:30:53;;;;;;;32.80;12.80;;;;;;;-3.43;84.23;97455.91;214004;1297;23890;-76
2022/12/14 14:36:24;;;;;;;28.90;12.70;;;;;;;-3.47;84.70;97458.50;213932;1291;138867;-78
2022/12/14 14:41:39;;;;;;;26.50;13.80;;;;;;;-3.54;84.91;97451.72;213888;1288;139302;-76
2022/12/14 14:46:47;;;;;;;28.00;15.00;;;;;;;-3.54;85.22;97420.34;213935;1280;139834;-76
2022/12/14 14:51:49;;;;;;;20.50;9.50;;;;;;;-3.58;85.25;97414.81;213774;1280;139559;-76
2022/12/14 14:56:51;;;;;;;31.40;14.30;;;;;;;-3.65;85.50;97404.58;213816;1288;138863;-76
2022/12/14 15:01:59;;;;;;;32.10;16.80;;;;;;;-3.68;85.89;97389.21;214134;1291;23010;-75
2022/12/14 15:07:06;;;;;;;27.40;14.50;;;;;;;-3.76;85.97;97380.31;213846;1284;22715;-75
2022/12/14 15:12:33;;;;;;;33.50;16.30;;;;;;;-3.80;86.47;97383.20;213608;1311;22530;-74
2022/12/14 15:17:35;;;;;;;23.80;12.10;;;;;;;-3.83;86.82;97380.98;213802;1311;22587;-74
2022/12/14 15:22:42;;;;;;;25.70;12.10;;;;;;;-3.85;87.10;97380.42;213857;1312;22499;-73
2022/12/14 15:27:46;;;;;;;29.90;14.40;;;;;;;-3.91;87.39;97376.59;213964;1312;22530;-75
2022/12/14 15:33:19;;;;;;;31.50;14.70;;;;;;;-3.93;87.87;97371.80;213651;1312;24352;-73
2022/12/14 15:38:26;;;;;;;25.00;13.10;;;;;;;-3.94;88.08;97377.98;213840;1312;25644;-74
2022/12/14 15:43:29;;;;;;;27.00;12.50;;;;;;;-3.97;88.33;97383.42;213775;1312;22952;-74
2022/12/14 15:48:33;;;;;;;33.00;15.00;;;;;;;-4.01;88.71;97387.27;213701;1307;22507;-74
2022/12/14 15:53:52;;;;;;;24.10;11.20;;;;;;;-4.00;89.03;97378.28;213960;1311;24472;-74
2022/12/14 15:58:59;;;;;;;27.70;13.30;;;;;;;-3.98;89.42;97373.98;213837;1312;22669;-73
2022/12/14 16:04:08;;;;;;;28.30;12.90;;;;;;;-3.93;89.82;97380.26;213769;1312;23727;-73
2022/12/14 16:09:18;;;;;;;27.70;11.90;;;;;;;-3.87;90.02;97375.58;213724;1312;23844;-72
2022/12/14 16:14:29;;;;;;;30.60;14.10;;;;;;;-3.88;90.12;97381.05;213619;1312;22492;-73
2022/12/14 16:19:34;;;;;;;24.50;11.60;;;;;;;-3.88;90.56;97381.94;213823;1312;28776;-74
2022/12/14 16:25:06;;;;;;;26.20;13.70;;;;;;;-3.86;90.42;97372.23;213804;1311;22533;-73
2022/12/14 16:30:20;;;;;;;26.90;13.10;;;;;;;-3.85;90.98;97366.14;213883;1298;22469;-73
2022/12/14 16:35:25;;;;;;;30.30;13.50;;;;;;;-3.83;90.90;97357.81;213876;1312;22727;-75
2022/12/14 16:40:30;;;;;;;36.60;16.50;;;;;;;-3.80;91.16;97351.44;214023;1312;22636;-73
2022/12/14 16:45:41;;;;;;;27.20;13.30;;;;;;;-3.77;91.46;97334.38;213859;1312;23346;-74
2022/12/14 16:50:44;;;;;;;31.50;13.10;;;;;;;-3.75;91.40;97336.67;213914;1312;26770;-73
2022/12/14 16:56:16;;;;;;;23.80;11.60;;;;;;;-3.76;91.46;97344.29;213891;1312;23952;-75
2022/12/14 17:01:23;;;;;;;38.20;16.50;;;;;;;-3.76;91.83;97346.08;213830;1312;26002;-74
2022/12/14 17:06:35;;;;;;;27.70;12.90;;;;;;;-3.74;92.08;97340.36;213642;1312;25459;-74
2022/12/14 17:11:38;;;;;;;38.10;16.10;;;;;;;-3.74;92.02;97325.91;214004;1306;22687;-74
2022/12/14 17:16:41;;;;;;;29.90;14.00;;;;;;;-3.68;92.64;97327.50;213693;1312;22506;-74
2022/12/14 17:21:43;;;;;;;30.00;14.60;;;;;;;-3.62;92.69;97320.35;213670;1311;22751;-74
2022/12/14 17:26:46;;;;;;;30.70;13.20;;;;;;;-3.56;92.68;97320.70;213759;1312;22507;-74
2022/12/14 17:31:51;;;;;;;36.50;17.10;;;;;;;-3.54;92.85;97319.23;213445;1312;22692;-73
2022/12/14 17:36:55;;;;;;;34.10;15.90;;;;;;;-3.49;92.82;97314.67;213682;1287;22651;-74
2022/12/14 17:41:59;;;;;;;28.70;14.60;;;;;;;-3.50;92.78;97311.19;213754;1312;25565;-73
2022/12/14 17:47:01;;;;;;;28.30;13.20;;;;;;;-3.51;92.91;97319.09;213742;1312;22583;-73
2022/12/14 17:52:06;;;;;;;25.70;13.30;;;;;;;-3.52;92.82;97315.41;213595;1312;24345;-74
2022/12/14 17:57:21;;;;;;;32.00;14.10;;;;;;;-3.53;92.98;97305.27;213665;1312;25641;-75
2022/12/14 18:02:29;;;;;;;31.70;16.00;;;;;;;-3.49;93.33;97287.86;213942;1312;22572;-75
2022/12/14 18:07:33;;;;;;;29.20;13.50;;;;;;;-3.46;93.24;97272.84;213948;1312;25768;-74
2022/12/14 18:12:35;;;;;;;35.90;15.90;;;;;;;-3.46;93.27;97276.91;213786;1312;23962;-74
2022/12/14 18:17:37;;;;;;;40.30;18.60;;;;;;;-3.46;93.70;97268.80;213572;1312;22566;-74
2022/12/14 18:22:39;;;;;;;41.20;18.10;;;;;;;-3.47;93.55;97272.23;213848;1312;22542;-74
2022/12/14 18:27:41;;;;;;;34.90;17.60;;;;;;;-3.47;93.55;97268.05;213863;1312;24387;-72
2022/12/14 18:32:44;;;;;;;33.50;15.30;;;;;;;-3.47;93.53;97265.48;213716;1312;22605;-74
2022/12/14 18:37:47;;;;;;;31.50;14.00;;;;;;;-3.48;93.65;97265.67;214036;1311;22526;-74
2022/12/14 18:42:55;;;;;;;31.40;14.90;;;;;;;-3.53;93.42;97252.60;213721;1305;24331;-74
2022/12/14 18:47:58;;;;;;;36.80;16.60;;;;;;;-3.56;93.73;97254.89;213767;1312;24366;-75
2022/12/14 18:53:02;;;;;;;48.10;20.40;;;;;;;-3.60;93.90;97256.05;213719;1312;25039;-76
2022/12/14 18:58:05;;;;;;;39.10;19.50;;;;;;;-3.56;94.22;97241.43;213936;1310;22584;-73
2022/12/14 19:03:13;;;;;;;46.10;22.00;;;;;;;-3.54;94.18;97224.63;213659;1312;24282;-75
2022/12/14 19:08:16;;;;;;;47.00;20.30;;;;;;;-3.56;94.14;97222.91;213927;1312;25577;-74
2022/12/14 19:13:20;;;;;;;37.80;16.00;;;;;;;-3.56;93.97;97226.48;213932;1312;25597;-74
2022/12/14 19:18:28;;;;;;;40.50;18.60;;;;;;;-3.55;94.17;97214.59;213913;1312;22558;-74
2022/12/14 19:23:31;;;;;;;32.30;15.90;;;;;;;-3.54;94.45;97217.39;213784;1312;24493;-75
2022/12/14 19:28:34;;;;;;;30.40;15.60;;;;;;;-3.54;94.50;97211.78;213797;1312;22556;-73
2022/12/14 19:33:37;;;;;;;37.90;18.40;;;;;;;-3.55;94.36;97215.48;213828;1312;29032;-75
2022/12/14 19:38:41;;;;;;;41.70;18.50;;;;;;;-3.58;94.49;97207.84;213728;1308;22506;-74
2022/12/14 19:43:46;;;;;;;37.30;17.70;;;;;;;-3.56;94.95;97206.95;213834;1312;22619;-75
2022/12/14 19:48:49;;;;;;;40.80;20.10;;;;;;;-3.55;94.64;97210.05;213767;1312;22741;-74
2022/12/14 19:53:53;;;;;;;46.10;20.50;;;;;;;-3.58;94.63;97203.46;213720;1312;22643;-75
2022/12/14 19:59:02;;;;;;;48.90;21.50;;;;;;;-3.60;94.76;97195.20;213789;1312;22500;-76
2022/12/14 20:04:05;;;;;;;47.90;20.90;;;;;;;-3.56;95.02;97206.67;213754;1311;22512;-75
2022/12/14 20:09:07;;;;;;;37.30;16.50;;;;;;;-3.51;95.12;97202.95;213736;1312;22508;-75
2022/12/14 20:14:11;;;;;;;35.30;16.10;;;;;;;-3.51;94.88;97202.85;213718;1311;23951;-74
2022/12/14 20:19:15;;;;;;;43.00;18.00;;;;;;;-3.51;94.82;97204.66;213843;1312;24243;-75
2022/12/14 20:24:17;;;;;;;43.80;18.60;;;;;;;-3.52;94.90;97214.03;213963;1311;22633;-74
2022/12/14 20:29:23;;;;;;;38.00;16.90;;;;;;;-3.54;95.02;97219.64;213968;1312;23135;-76
2022/12/14 20:34:27;;;;;;;44.50;20.60;;;;;;;-3.53;94.78;97219.70;213776;1312;26674;-75
2022/12/14 20:39:29;;;;;;;46.00;21.70;;;;;;;-3.54;94.92;97230.16;213610;1312;24325;-74
2022/12/14 20:44:31;;;;;;;47.60;20.30;;;;;;;-3.49;95.36;97229.00;213912;1312;25959;-74
2022/12/14 20:49:33;;;;;;;49.90;23.70;;;;;;;-3.40;95.93;97221.05;213743;1312;25533;-75
2022/12/14 20:54:35;;;;;;;46.50;21.30;;;;;;;-3.30;95.42;97228.54;213548;1312;23917;-75
2022/12/14 20:59:37;;;;;;;52.40;23.80;;;;;;;-3.32;95.36;97225.42;213643;1312;23906;-75
2022/12/14 21:04:39;;;;;;;68.50;29.20;;;;;;;-3.37;95.13;97226.60;213751;1312;22528;-74
2022/12/14 21:09:41;;;;;;;72.30;30.40;;;;;;;-3.36;95.51;97233.52;213908;1312;24356;-74
2022/12/14 21:14:45;;;;;;;56.40;25.40;;;;;;;-3.35;95.35;97232.48;213806;1306;22930;-75
2022/12/14 21:19:49;;;;;;;73.60;31.10;;;;;;;-3.37;95.02;97223.86;213955;1312;22686;-75
2022/12/14 21:24:51;;;;;;;89.80;37.40;;;;;;;-3.41;95.35;97226.84;213644;1312;23363;-75
2022/12/14 21:30:10;;;;;;;90.40;34.80;;;;;;;-3.37;95.62;97224.30;213745;1311;22555;-75
2022/12/14 21:35:16;;;;;;;92.10;38.80;;;;;;;-3.34;95.63;97231.73;213609;1311;22595;-75
2022/12/14 21:42:09;;;;;;;85.30;35.50;;;;;;;-3.31;95.51;97231.14;213673;1312;22555;-74
2022/12/14 21:45:40;;;;;;;102.50;43.30;;;;;;;-3.29;95.68;97228.02;213773;1312;26747;-75
2022/12/14 21:50:44;;;;;;;96.60;40.30;;;;;;;-3.26;95.69;97227.23;213804;1312;24122;-74
2022/12/14 21:55:50;;;;;;;111.20;45.80;;;;;;;-3.23;95.91;97227.14;213692;1312;24259;-75
2022/12/14 22:00:52;;;;;;;111.20;45.10;;;;;;;-3.19;95.75;97217.45;213829;1312;23915;-75
2022/12/14 22:05:54;;;;;;;119.30;46.80;;;;;;;-3.18;95.52;97214.23;213860;1312;22606;-75
2022/12/14 22:11:01;;;;;;;95.20;39.50;;;;;;;-3.16;95.62;97217.70;213777;1312;24358;-74
2022/12/14 22:16:06;;;;;;;124.10;46.40;;;;;;;-3.18;95.69;97217.31;213794;1312;22483;-74
2022/12/14 22:21:08;;;;;;;94.30;37.00;;;;;;;-3.15;95.77;97226.79;213765;1312;24442;-75
2022/12/14 22:26:10;;;;;;;118.70;45.10;;;;;;;-3.16;95.93;97240.98;213872;1312;22540;-75
2022/12/14 22:31:12;;;;;;;76.60;33.10;;;;;;;-3.17;95.59;97236.50;213594;1312;24358;-74
2022/12/14 22:36:15;;;;;;;105.80;42.20;;;;;;;-3.21;95.45;97229.53;213839;1312;25121;-75
2022/12/14 22:41:18;;;;;;;115.60;44.60;;;;;;;-3.21;95.91;97224.66;213783;1312;218369;-75
2022/12/14 22:46:22;;;;;;;96.40;35.70;;;;;;;-3.18;95.77;97225.64;213937;1311;24775;-74
2022/12/14 22:51:24;;;;;;;101.70;39.20;;;;;;;-3.24;95.61;97222.93;213855;1312;22634;-74
2022/12/14 22:56:33;;;;;;;104.90;41.20;;;;;;;-3.33;95.38;97223.72;213649;1312;24402;-74
2022/12/14 23:01:36;;;;;;;121.30;45.80;;;;;;;-3.37;95.79;97233.03;213755;1312;22484;-74
2022/12/14 23:06:39;;;;;;;119.10;45.50;;;;;;;-3.35;96.06;97230.09;213583;1312;25541;-74
